sensor_id;sensor_type;location;lat;lon;timestamp;temperature;humidity
1626;DHT22;806;48.770;9.156;2024-03-22T00:02:15;11.30;1.00
1626;DHT22;806;48.770;9.156;2024-03-22T00:04:42;11.10;1.00
1626;DHT22;806;48.770;9.156;2024-03-22T00:07:08;11.10;1.00
1626;DHT22;806;48.770;9.156;2024-03-22T00:09:35;11.10;1.00
1626;DHT22;806;48.770;9.156;2024-03-22T00:12:01;11.10;1.00
1626;DHT22;806;48.770;9.156;2024-03-22T00:14:29;11.10;1.00
1626;DHT22;806;48.770;9.156;2024-03-22T00:16:55;11.10;1.00
1626;DHT22;806;48.770;9.156;2024-03-22T00:19:23;11.00;1.00
1626;DHT22;806;48.770;9.156;2024-03-22T00:21:49;11.00;1.00
1626;DHT22;806;48.770;9.156;2024-03-22T00:24:16;10.90;1.00
1626;DHT22;806;48.770;9.156;2024-03-22T00:26:42;10.90;1.00
1626;DHT22;806;48.770;9.156;2024-03-22T00:29:09;10.80;1.00
1626;DHT22;806;48.770;9.156;2024-03-22T00:31:35;10.80;1.00
1626;DHT22;806;48.770;9.156;2024-03-22T00:34:02;10.80;1.00
1626;DHT22;806;48.770;9.156;2024-03-22T00:36:29;10.70;1.00
1626;DHT22;806;48.770;9.156;2024-03-22T00:38:56;10.70;1.00
1626;DHT22;806;48.770;9.156;2024-03-22T00:41:22;10.60;1.00
1626;DHT22;806;48.770;9.156;2024-03-22T00:43:49;10.70;1.00
1626;DHT22;806;48.770;9.156;2024-03-22T00:46:15;10.60;1.00
1626;DHT22;806;48.770;9.156;2024-03-22T00:48:42;10.60;1.00
1626;DHT22;806;48.770;9.156;2024-03-22T00:51:08;10.60;1.00
1626;DHT22;806;48.770;9.156;2024-03-22T00:53:37;10.60;1.00
1626;DHT22;806;48.770;9.156;2024-03-22T00:56:03;10.60;1.00
1626;DHT22;806;48.770;9.156;2024-03-22T00:58:30;10.60;1.00
1626;DHT22;806;48.770;9.156;2024-03-22T01:00:56;10.50;1.00
1626;DHT22;806;48.770;9.156;2024-03-22T01:03:23;10.50;1.00
1626;DHT22;806;48.770;9.156;2024-03-22T01:05:49;10.50;1.00
1626;DHT22;806;48.770;9.156;2024-03-22T01:08:16;10.50;1.00
1626;DHT22;806;48.770;9.156;2024-03-22T01:10:43;10.50;1.00
1626;DHT22;806;48.770;9.156;2024-03-22T01:13:10;10.40;1.00
1626;DHT22;806;48.770;9.156;2024-03-22T01:15:36;10.40;1.00
1626;DHT22;806;48.770;9.156;2024-03-22T01:18:04;10.40;1.00
1626;DHT22;806;48.770;9.156;2024-03-22T01:20:30;10.40;1.00
1626;DHT22;806;48.770;9.156;2024-03-22T01:22:58;10.30;1.00
1626;DHT22;806;48.770;9.156;2024-03-22T01:25:24;10.30;1.00
1626;DHT22;806;48.770;9.156;2024-03-22T01:27:53;10.20;1.00
1626;DHT22;806;48.770;9.156;2024-03-22T01:30:18;10.20;1.00
1626;DHT22;806;48.770;9.156;2024-03-22T01:32:45;10.20;1.00
1626;DHT22;806;48.770;9.156;2024-03-22T01:35:11;10.10;1.00
1626;DHT22;806;48.770;9.156;2024-03-22T01:37:38;10.20;1.00
1626;DHT22;806;48.770;9.156;2024-03-22T01:40:07;10.10;1.00
1626;DHT22;806;48.770;9.156;2024-03-22T01:42:33;10.10;1.00
1626;DHT22;806;48.770;9.156;2024-03-22T01:45:02;10.10;1.00
1626;DHT22;806;48.770;9.156;2024-03-22T01:47:29;10.10;1.00
1626;DHT22;806;48.770;9.156;2024-03-22T01:49:57;10.20;1.00
1626;DHT22;806;48.770;9.156;2024-03-22T01:52:23;10.20;1.00
1626;DHT22;806;48.770;9.156;2024-03-22T01:54:50;10.20;1.00
1626;DHT22;806;48.770;9.156;2024-03-22T01:57:16;10.20;1.00
1626;DHT22;806;48.770;9.156;2024-03-22T01:59:43;10.10;1.00
1626;DHT22;806;48.770;9.156;2024-03-22T02:02:11;10.10;1.00
1626;DHT22;806;48.770;9.156;2024-03-22T02:04:38;10.00;1.00
1626;DHT22;806;48.770;9.156;2024-03-22T02:07:04;10.00;1.00
1626;DHT22;806;48.770;9.156;2024-03-22T02:09:31;10.00;1.00
1626;DHT22;806;48.770;9.156;2024-03-22T02:11:57;9.90;1.00
1626;DHT22;806;48.770;9.156;2024-03-22T02:14:24;9.90;1.00
1626;DHT22;806;48.770;9.156;2024-03-22T02:16:52;9.80;1.00
1626;DHT22;806;48.770;9.156;2024-03-22T02:19:19;9.80;99.90
1626;DHT22;806;48.770;9.156;2024-03-22T02:21:46;9.70;99.90
1626;DHT22;806;48.770;9.156;2024-03-22T02:24:14;9.70;1.00
1626;DHT22;806;48.770;9.156;2024-03-22T02:26:41;9.70;99.90
1626;DHT22;806;48.770;9.156;2024-03-22T02:29:07;9.70;1.00
1626;DHT22;806;48.770;9.156;2024-03-22T02:31:34;9.70;1.00
1626;DHT22;806;48.770;9.156;2024-03-22T02:34:00;9.70;1.00
1626;DHT22;806;48.770;9.156;2024-03-22T02:36:27;9.60;1.00
1626;DHT22;806;48.770;9.156;2024-03-22T02:38:53;9.60;1.00
1626;DHT22;806;48.770;9.156;2024-03-22T02:41:22;9.60;1.00
1626;DHT22;806;48.770;9.156;2024-03-22T02:43:48;9.60;1.00
1626;DHT22;806;48.770;9.156;2024-03-22T02:46:15;9.60;1.00
1626;DHT22;806;48.770;9.156;2024-03-22T02:48:41;9.60;1.00
1626;DHT22;806;48.770;9.156;2024-03-22T02:51:08;9.50;1.00
1626;DHT22;806;48.770;9.156;2024-03-22T02:53:34;9.50;1.00
1626;DHT22;806;48.770;9.156;2024-03-22T02:56:01;9.50;1.00
1626;DHT22;806;48.770;9.156;2024-03-22T02:58:28;9.40;99.90
1626;DHT22;806;48.770;9.156;2024-03-22T03:00:55;9.30;99.90
1626;DHT22;806;48.770;9.156;2024-03-22T03:03:21;9.10;99.90
1626;DHT22;806;48.770;9.156;2024-03-22T03:05:48;9.10;99.90
1626;DHT22;806;48.770;9.156;2024-03-22T03:08:14;9.10;99.90
1626;DHT22;806;48.770;9.156;2024-03-22T03:10:41;9.20;99.90
1626;DHT22;806;48.770;9.156;2024-03-22T03:13:07;9.20;99.90
1626;DHT22;806;48.770;9.156;2024-03-22T03:15:36;9.30;99.90
1626;DHT22;806;48.770;9.156;2024-03-22T03:18:02;9.40;99.90
1626;DHT22;806;48.770;9.156;2024-03-22T03:20:29;9.40;99.90
1626;DHT22;806;48.770;9.156;2024-03-22T03:22:55;9.40;99.90
1626;DHT22;806;48.770;9.156;2024-03-22T03:25:25;9.50;6.90
1626;DHT22;806;48.770;9.156;2024-03-22T03:27:51;9.50;12.00
1626;DHT22;806;48.770;9.156;2024-03-22T03:30:18;9.50;99.90
1626;DHT22;806;48.770;9.156;2024-03-22T03:32:45;9.50;99.90
1626;DHT22;806;48.770;9.156;2024-03-22T03:35:12;9.50;99.90
1626;DHT22;806;48.770;9.156;2024-03-22T03:37:38;9.40;19.20
1626;DHT22;806;48.770;9.156;2024-03-22T03:40:07;9.40;24.50
1626;DHT22;806;48.770;9.156;2024-03-22T03:42:33;9.40;26.70
1626;DHT22;806;48.770;9.156;2024-03-22T03:45:00;9.50;27.10
1626;DHT22;806;48.770;9.156;2024-03-22T03:47:26;9.50;27.10
1626;DHT22;806;48.770;9.156;2024-03-22T03:49:54;9.60;99.90
1626;DHT22;806;48.770;9.156;2024-03-22T03:52:20;9.60;99.90
1626;DHT22;806;48.770;9.156;2024-03-22T03:54:47;9.50;99.90
1626;DHT22;806;48.770;9.156;2024-03-22T03:57:13;9.50;99.90
1626;DHT22;806;48.770;9.156;2024-03-22T03:59:40;9.50;99.90
1626;DHT22;806;48.770;9.156;2024-03-22T04:02:06;9.40;99.90
1626;DHT22;806;48.770;9.156;2024-03-22T04:04:33;9.40;99.90
1626;DHT22;806;48.770;9.156;2024-03-22T04:07:00;9.50;99.90
1626;DHT22;806;48.770;9.156;2024-03-22T04:09:28;9.50;99.90
1626;DHT22;806;48.770;9.156;2024-03-22T04:11:54;9.50;99.90
1626;DHT22;806;48.770;9.156;2024-03-22T04:14:24;9.50;99.90
1626;DHT22;806;48.770;9.156;2024-03-22T04:16:50;9.40;99.90
1626;DHT22;806;48.770;9.156;2024-03-22T04:19:17;9.40;99.90
1626;DHT22;806;48.770;9.156;2024-03-22T04:21:43;9.40;99.90
1626;DHT22;806;48.770;9.156;2024-03-22T04:24:11;9.40;99.90
1626;DHT22;806;48.770;9.156;2024-03-22T04:26:37;9.40;99.90
1626;DHT22;806;48.770;9.156;2024-03-22T04:29:04;9.50;99.90
1626;DHT22;806;48.770;9.156;2024-03-22T04:31:30;9.50;99.90
1626;DHT22;806;48.770;9.156;2024-03-22T04:33:57;9.50;99.90
1626;DHT22;806;48.770;9.156;2024-03-22T04:36:23;9.60;99.90
1626;DHT22;806;48.770;9.156;2024-03-22T04:38:50;9.60;99.90
1626;DHT22;806;48.770;9.156;2024-03-22T04:41:19;9.70;99.90
1626;DHT22;806;48.770;9.156;2024-03-22T04:43:46;9.70;99.90
1626;DHT22;806;48.770;9.156;2024-03-22T04:46:12;9.80;99.90
1626;DHT22;806;48.770;9.156;2024-03-22T04:48:39;9.80;99.90
1626;DHT22;806;48.770;9.156;2024-03-22T04:51:05;9.90;99.90
1626;DHT22;806;48.770;9.156;2024-03-22T04:53:32;9.90;99.90
1626;DHT22;806;48.770;9.156;2024-03-22T04:55:58;9.90;99.90
1626;DHT22;806;48.770;9.156;2024-03-22T04:58:27;9.90;99.90
1626;DHT22;806;48.770;9.156;2024-03-22T05:00:57;10.00;99.90
1626;DHT22;806;48.770;9.156;2024-03-22T05:03:24;10.00;99.90
1626;DHT22;806;48.770;9.156;2024-03-22T05:05:50;10.00;99.90
1626;DHT22;806;48.770;9.156;2024-03-22T05:08:17;10.00;99.90
1626;DHT22;806;48.770;9.156;2024-03-22T05:10:43;10.00;99.90
1626;DHT22;806;48.770;9.156;2024-03-22T05:13:10;10.10;99.90
1626;DHT22;806;48.770;9.156;2024-03-22T05:15:37;10.10;99.90
1626;DHT22;806;48.770;9.156;2024-03-22T05:18:04;10.10;99.90
1626;DHT22;806;48.770;9.156;2024-03-22T05:20:30;10.10;99.90
1626;DHT22;806;48.770;9.156;2024-03-22T05:22:58;10.00;99.90
1626;DHT22;806;48.770;9.156;2024-03-22T05:25:24;10.00;99.90
1626;DHT22;806;48.770;9.156;2024-03-22T05:27:51;10.00;99.90
1626;DHT22;806;48.770;9.156;2024-03-22T05:30:17;10.00;99.90
1626;DHT22;806;48.770;9.156;2024-03-22T05:32:46;9.90;99.90
1626;DHT22;806;48.770;9.156;2024-03-22T05:35:12;10.00;99.90
1626;DHT22;806;48.770;9.156;2024-03-22T05:37:39;10.00;99.90
1626;DHT22;806;48.770;9.156;2024-03-22T05:40:06;10.10;99.90
1626;DHT22;806;48.770;9.156;2024-03-22T05:42:34;10.10;99.90
1626;DHT22;806;48.770;9.156;2024-03-22T05:45:01;10.30;99.90
1626;DHT22;806;48.770;9.156;2024-03-22T05:47:28;10.30;99.90
1626;DHT22;806;48.770;9.156;2024-03-22T05:49:58;10.40;99.90
1626;DHT22;806;48.770;9.156;2024-03-22T05:52:24;10.40;99.90
1626;DHT22;806;48.770;9.156;2024-03-22T05:54:51;10.40;99.90
1626;DHT22;806;48.770;9.156;2024-03-22T05:57:17;10.40;99.90
1626;DHT22;806;48.770;9.156;2024-03-22T05:59:44;10.30;99.90
1626;DHT22;806;48.770;9.156;2024-03-22T06:02:10;10.30;99.90
1626;DHT22;806;48.770;9.156;2024-03-22T06:04:37;10.30;99.90
1626;DHT22;806;48.770;9.156;2024-03-22T06:07:04;10.40;99.90
1626;DHT22;806;48.770;9.156;2024-03-22T06:09:32;10.30;99.90
1626;DHT22;806;48.770;9.156;2024-03-22T06:12:04;10.40;99.90
1626;DHT22;806;48.770;9.156;2024-03-22T06:14:31;10.30;99.90
1626;DHT22;806;48.770;9.156;2024-03-22T06:16:57;10.20;99.90
1626;DHT22;806;48.770;9.156;2024-03-22T06:19:24;10.30;99.90
1626;DHT22;806;48.770;9.156;2024-03-22T06:21:51;10.30;99.90
1626;DHT22;806;48.770;9.156;2024-03-22T06:24:19;10.20;99.90
1626;DHT22;806;48.770;9.156;2024-03-22T06:26:45;10.30;99.90
1626;DHT22;806;48.770;9.156;2024-03-22T06:29:12;10.30;99.90
1626;DHT22;806;48.770;9.156;2024-03-22T06:31:38;10.40;99.90
1626;DHT22;806;48.770;9.156;2024-03-22T06:34:05;10.50;99.90
1626;DHT22;806;48.770;9.156;2024-03-22T06:36:32;10.30;99.90
1626;DHT22;806;48.770;9.156;2024-03-22T06:38:59;10.30;99.90
1626;DHT22;806;48.770;9.156;2024-03-22T06:41:27;10.20;99.90
1626;DHT22;806;48.770;9.156;2024-03-22T06:43:54;10.30;99.90
1626;DHT22;806;48.770;9.156;2024-03-22T06:46:20;10.30;99.90
1626;DHT22;806;48.770;9.156;2024-03-22T06:48:48;10.40;99.90
1626;DHT22;806;48.770;9.156;2024-03-22T06:51:14;10.50;99.90
1626;DHT22;806;48.770;9.156;2024-03-22T06:53:41;10.50;99.90
1626;DHT22;806;48.770;9.156;2024-03-22T06:56:07;10.60;99.90
1626;DHT22;806;48.770;9.156;2024-03-22T06:58:38;10.60;99.90
1626;DHT22;806;48.770;9.156;2024-03-22T07:01:05;10.60;99.90
1626;DHT22;806;48.770;9.156;2024-03-22T07:03:32;10.70;99.90
1626;DHT22;806;48.770;9.156;2024-03-22T07:05:59;10.70;99.90
1626;DHT22;806;48.770;9.156;2024-03-22T07:08:25;10.70;99.90
1626;DHT22;806;48.770;9.156;2024-03-22T07:10:52;10.80;99.90
1626;DHT22;806;48.770;9.156;2024-03-22T07:13:19;10.80;99.90
1626;DHT22;806;48.770;9.156;2024-03-22T07:15:47;10.80;99.90
1626;DHT22;806;48.770;9.156;2024-03-22T07:18:13;10.90;99.90
1626;DHT22;806;48.770;9.156;2024-03-22T07:20:41;11.00;99.90
1626;DHT22;806;48.770;9.156;2024-03-22T07:23:07;11.20;99.90
1626;DHT22;806;48.770;9.156;2024-03-22T07:25:34;11.40;99.90
1626;DHT22;806;48.770;9.156;2024-03-22T07:28:00;11.50;99.90
1626;DHT22;806;48.770;9.156;2024-03-22T07:30:27;11.70;99.90
1626;DHT22;806;48.770;9.156;2024-03-22T07:32:55;11.90;99.90
1626;DHT22;806;48.770;9.156;2024-03-22T07:35:22;12.00;99.90
1626;DHT22;806;48.770;9.156;2024-03-22T07:37:48;12.00;99.90
1626;DHT22;806;48.770;9.156;2024-03-22T07:40:15;12.00;99.90
1626;DHT22;806;48.770;9.156;2024-03-22T07:42:41;12.10;99.90
1626;DHT22;806;48.770;9.156;2024-03-22T07:45:08;12.20;99.90
1626;DHT22;806;48.770;9.156;2024-03-22T07:47:35;12.30;99.90
1626;DHT22;806;48.770;9.156;2024-03-22T07:50:05;12.50;99.90
1626;DHT22;806;48.770;9.156;2024-03-22T07:52:31;12.60;99.90
1626;DHT22;806;48.770;9.156;2024-03-22T07:54:58;12.70;99.90
1626;DHT22;806;48.770;9.156;2024-03-22T07:57:25;12.80;99.90
1626;DHT22;806;48.770;9.156;2024-03-22T07:59:52;13.00;99.90
1626;DHT22;806;48.770;9.156;2024-03-22T08:02:18;13.20;99.90
1626;DHT22;806;48.770;9.156;2024-03-22T08:04:45;13.30;99.90
1626;DHT22;806;48.770;9.156;2024-03-22T08:07:12;13.40;99.90
1626;DHT22;806;48.770;9.156;2024-03-22T08:09:39;13.50;99.90
1626;DHT22;806;48.770;9.156;2024-03-22T08:12:06;13.60;99.90
1626;DHT22;806;48.770;9.156;2024-03-22T08:14:33;13.80;99.90
1626;DHT22;806;48.770;9.156;2024-03-22T08:16:59;14.00;99.90
1626;DHT22;806;48.770;9.156;2024-03-22T08:19:26;14.20;99.90
1626;DHT22;806;48.770;9.156;2024-03-22T08:21:53;14.30;99.90
1626;DHT22;806;48.770;9.156;2024-03-22T08:24:21;14.30;99.90
1626;DHT22;806;48.770;9.156;2024-03-22T08:26:47;14.50;99.90
1626;DHT22;806;48.770;9.156;2024-03-22T08:29:13;14.70;99.90
1626;DHT22;806;48.770;9.156;2024-03-22T08:31:41;14.90;99.90
1626;DHT22;806;48.770;9.156;2024-03-22T08:34:08;15.10;99.90
1626;DHT22;806;48.770;9.156;2024-03-22T08:36:35;15.40;99.90
1626;DHT22;806;48.770;9.156;2024-03-22T08:39:02;15.60;99.90
1626;DHT22;806;48.770;9.156;2024-03-22T08:41:32;15.70;99.90
1626;DHT22;806;48.770;9.156;2024-03-22T08:43:58;15.60;99.90
1626;DHT22;806;48.770;9.156;2024-03-22T08:46:25;15.70;99.90
1626;DHT22;806;48.770;9.156;2024-03-22T08:48:52;15.90;99.90
1626;DHT22;806;48.770;9.156;2024-03-22T08:51:19;16.10;99.90
1626;DHT22;806;48.770;9.156;2024-03-22T08:53:45;16.20;99.90
1626;DHT22;806;48.770;9.156;2024-03-22T08:56:12;16.10;99.90
1626;DHT22;806;48.770;9.156;2024-03-22T08:58:39;16.10;99.90
1626;DHT22;806;48.770;9.156;2024-03-22T09:01:07;16.00;99.90
1626;DHT22;806;48.770;9.156;2024-03-22T09:03:35;16.00;99.90
1626;DHT22;806;48.770;9.156;2024-03-22T09:06:02;16.10;99.90
1626;DHT22;806;48.770;9.156;2024-03-22T09:08:28;16.20;99.90
1626;DHT22;806;48.770;9.156;2024-03-22T09:10:55;16.20;99.90
1626;DHT22;806;48.770;9.156;2024-03-22T09:13:22;16.20;99.90
1626;DHT22;806;48.770;9.156;2024-03-22T09:15:56;16.30;99.90
1626;DHT22;806;48.770;9.156;2024-03-22T09:18:22;16.60;99.90
1626;DHT22;806;48.770;9.156;2024-03-22T09:20:49;16.70;99.90
1626;DHT22;806;48.770;9.156;2024-03-22T09:23:15;16.50;99.90
1626;DHT22;806;48.770;9.156;2024-03-22T09:25:42;16.50;99.90
1626;DHT22;806;48.770;9.156;2024-03-22T09:28:08;16.50;99.90
1626;DHT22;806;48.770;9.156;2024-03-22T09:30:38;16.70;99.90
1626;DHT22;806;48.770;9.156;2024-03-22T09:33:05;16.80;99.90
1626;DHT22;806;48.770;9.156;2024-03-22T09:35:33;16.80;99.90
1626;DHT22;806;48.770;9.156;2024-03-22T09:37:59;16.90;99.90
1626;DHT22;806;48.770;9.156;2024-03-22T09:40:26;17.00;99.90
1626;DHT22;806;48.770;9.156;2024-03-22T09:42:53;17.10;99.90
1626;DHT22;806;48.770;9.156;2024-03-22T09:45:20;17.30;99.90
1626;DHT22;806;48.770;9.156;2024-03-22T09:47:48;17.30;99.90
1626;DHT22;806;48.770;9.156;2024-03-22T09:50:16;17.40;99.90
1626;DHT22;806;48.770;9.156;2024-03-22T09:52:43;17.50;99.90
1626;DHT22;806;48.770;9.156;2024-03-22T09:55:10;17.50;99.90
1626;DHT22;806;48.770;9.156;2024-03-22T09:57:38;17.60;99.90
1626;DHT22;806;48.770;9.156;2024-03-22T10:00:07;17.90;99.90
1626;DHT22;806;48.770;9.156;2024-03-22T10:02:34;18.10;99.90
1626;DHT22;806;48.770;9.156;2024-03-22T10:05:01;18.40;99.90
1626;DHT22;806;48.770;9.156;2024-03-22T10:07:29;18.40;99.90
1626;DHT22;806;48.770;9.156;2024-03-22T10:09:58;18.70;99.90
1626;DHT22;806;48.770;9.156;2024-03-22T10:12:24;19.10;99.90
1626;DHT22;806;48.770;9.156;2024-03-22T10:14:53;19.20;99.90
1626;DHT22;806;48.770;9.156;2024-03-22T10:17:19;19.10;99.90
1626;DHT22;806;48.770;9.156;2024-03-22T10:19:48;18.90;99.90
1626;DHT22;806;48.770;9.156;2024-03-22T10:22:16;18.80;99.90
1626;DHT22;806;48.770;9.156;2024-03-22T10:24:44;18.80;99.90
1626;DHT22;806;48.770;9.156;2024-03-22T10:27:10;19.00;99.90
1626;DHT22;806;48.770;9.156;2024-03-22T10:29:37;18.90;99.20
1626;DHT22;806;48.770;9.156;2024-03-22T10:32:06;18.70;99.30
1626;DHT22;806;48.770;9.156;2024-03-22T10:34:35;18.50;99.90
1626;DHT22;806;48.770;9.156;2024-03-22T10:37:01;18.50;99.90
1626;DHT22;806;48.770;9.156;2024-03-22T10:39:30;18.60;99.90
1626;DHT22;806;48.770;9.156;2024-03-22T10:41:58;18.60;99.90
1626;DHT22;806;48.770;9.156;2024-03-22T10:44:25;18.50;99.90
1626;DHT22;806;48.770;9.156;2024-03-22T10:46:54;18.50;98.90
1626;DHT22;806;48.770;9.156;2024-03-22T10:49:22;18.60;99.30
1626;DHT22;806;48.770;9.156;2024-03-22T10:51:54;18.80;99.70
1626;DHT22;806;48.770;9.156;2024-03-22T10:54:27;19.20;99.80
1626;DHT22;806;48.770;9.156;2024-03-22T10:56:54;19.50;98.40
1626;DHT22;806;48.770;9.156;2024-03-22T10:59:23;19.30;96.70
1626;DHT22;806;48.770;9.156;2024-03-22T11:01:50;19.40;98.00
1626;DHT22;806;48.770;9.156;2024-03-22T11:04:17;19.60;96.20
1626;DHT22;806;48.770;9.156;2024-03-22T11:06:47;19.60;95.20
1626;DHT22;806;48.770;9.156;2024-03-22T11:09:20;19.20;96.10
1626;DHT22;806;48.770;9.156;2024-03-22T11:11:47;19.50;97.50
1626;DHT22;806;48.770;9.156;2024-03-22T11:14:14;19.90;97.00
1626;DHT22;806;48.770;9.156;2024-03-22T11:16:44;20.20;95.80
1626;DHT22;806;48.770;9.156;2024-03-22T11:19:11;20.30;95.40
1626;DHT22;806;48.770;9.156;2024-03-22T11:21:37;20.40;94.60
1626;DHT22;806;48.770;9.156;2024-03-22T11:24:05;20.70;94.40
1626;DHT22;806;48.770;9.156;2024-03-22T11:26:31;20.80;93.20
1626;DHT22;806;48.770;9.156;2024-03-22T11:28:58;20.90;93.00
1626;DHT22;806;48.770;9.156;2024-03-22T11:31:24;21.00;90.20
1626;DHT22;806;48.770;9.156;2024-03-22T11:33:55;20.70;89.80
1626;DHT22;806;48.770;9.156;2024-03-22T11:36:21;20.60;88.60
1626;DHT22;806;48.770;9.156;2024-03-22T11:38:48;20.40;90.80
1626;DHT22;806;48.770;9.156;2024-03-22T11:41:16;20.60;90.90
1626;DHT22;806;48.770;9.156;2024-03-22T11:43:44;20.90;90.10
1626;DHT22;806;48.770;9.156;2024-03-22T11:46:11;21.30;90.70
1626;DHT22;806;48.770;9.156;2024-03-22T11:48:40;21.60;87.90
1626;DHT22;806;48.770;9.156;2024-03-22T11:51:08;21.80;88.80
1626;DHT22;806;48.770;9.156;2024-03-22T11:53:36;21.90;88.80
1626;DHT22;806;48.770;9.156;2024-03-22T11:56:03;21.80;89.40
1626;DHT22;806;48.770;9.156;2024-03-22T11:58:31;22.00;88.10
1626;DHT22;806;48.770;9.156;2024-03-22T12:00:57;21.90;87.10
1626;DHT22;806;48.770;9.156;2024-03-22T12:03:24;21.90;89.10
1626;DHT22;806;48.770;9.156;2024-03-22T12:05:52;22.00;84.90
1626;DHT22;806;48.770;9.156;2024-03-22T12:08:22;21.80;80.70
1626;DHT22;806;48.770;9.156;2024-03-22T12:10:48;21.00;80.40
1626;DHT22;806;48.770;9.156;2024-03-22T12:13:15;20.90;86.20
1626;DHT22;806;48.770;9.156;2024-03-22T12:15:41;21.10;87.60
1626;DHT22;806;48.770;9.156;2024-03-22T12:18:08;21.30;83.50
1626;DHT22;806;48.770;9.156;2024-03-22T12:20:34;21.40;80.00
1626;DHT22;806;48.770;9.156;2024-03-22T12:23:01;21.20;76.80
1626;DHT22;806;48.770;9.156;2024-03-22T12:25:28;21.30;76.80
1626;DHT22;806;48.770;9.156;2024-03-22T12:27:55;21.40;77.80
1626;DHT22;806;48.770;9.156;2024-03-22T12:30:22;21.40;72.90
1626;DHT22;806;48.770;9.156;2024-03-22T12:32:49;21.20;71.30
1626;DHT22;806;48.770;9.156;2024-03-22T12:35:15;20.90;71.50
1626;DHT22;806;48.770;9.156;2024-03-22T12:37:42;20.50;73.10
1626;DHT22;806;48.770;9.156;2024-03-22T12:40:09;20.20;77.00
1626;DHT22;806;48.770;9.156;2024-03-22T12:42:38;19.90;75.30
1626;DHT22;806;48.770;9.156;2024-03-22T12:45:05;20.10;79.50
1626;DHT22;806;48.770;9.156;2024-03-22T12:47:33;20.40;75.40
1626;DHT22;806;48.770;9.156;2024-03-22T12:49:59;20.50;77.30
1626;DHT22;806;48.770;9.156;2024-03-22T12:52:26;20.60;73.60
1626;DHT22;806;48.770;9.156;2024-03-22T12:54:52;20.60;77.20
1626;DHT22;806;48.770;9.156;2024-03-22T12:57:19;20.50;73.20
1626;DHT22;806;48.770;9.156;2024-03-22T12:59:47;20.50;74.20
1626;DHT22;806;48.770;9.156;2024-03-22T13:02:14;20.30;74.70
1626;DHT22;806;48.770;9.156;2024-03-22T13:04:40;20.50;75.70
1626;DHT22;806;48.770;9.156;2024-03-22T13:07:09;20.50;75.50
1626;DHT22;806;48.770;9.156;2024-03-22T13:09:35;20.40;75.90
1626;DHT22;806;48.770;9.156;2024-03-22T13:12:02;20.50;75.70
1626;DHT22;806;48.770;9.156;2024-03-22T13:14:28;20.40;77.10
1626;DHT22;806;48.770;9.156;2024-03-22T13:16:57;20.20;80.00
1626;DHT22;806;48.770;9.156;2024-03-22T13:19:23;20.50;77.40
1626;DHT22;806;48.770;9.156;2024-03-22T13:21:50;20.60;77.40
1626;DHT22;806;48.770;9.156;2024-03-22T13:24:17;20.50;76.90
1626;DHT22;806;48.770;9.156;2024-03-22T13:26:44;20.40;76.60
1626;DHT22;806;48.770;9.156;2024-03-22T13:29:10;20.40;77.30
1626;DHT22;806;48.770;9.156;2024-03-22T13:31:38;20.40;78.80
1626;DHT22;806;48.770;9.156;2024-03-22T13:34:05;20.50;79.00
1626;DHT22;806;48.770;9.156;2024-03-22T13:36:33;20.50;78.60
1626;DHT22;806;48.770;9.156;2024-03-22T13:38:59;20.50;79.10
1626;DHT22;806;48.770;9.156;2024-03-22T13:41:26;20.30;78.90
1626;DHT22;806;48.770;9.156;2024-03-22T13:43:52;20.30;80.10
1626;DHT22;806;48.770;9.156;2024-03-22T13:46:19;20.30;81.50
1626;DHT22;806;48.770;9.156;2024-03-22T13:48:45;20.40;81.60
1626;DHT22;806;48.770;9.156;2024-03-22T13:51:15;20.70;79.80
1626;DHT22;806;48.770;9.156;2024-03-22T13:53:41;21.00;77.90
1626;DHT22;806;48.770;9.156;2024-03-22T13:56:08;21.00;76.30
1626;DHT22;806;48.770;9.156;2024-03-22T13:58:34;20.80;77.90
1626;DHT22;806;48.770;9.156;2024-03-22T14:01:02;20.80;78.40
1626;DHT22;806;48.770;9.156;2024-03-22T14:03:29;20.80;78.70
1626;DHT22;806;48.770;9.156;2024-03-22T14:05:56;20.90;80.10
1626;DHT22;806;48.770;9.156;2024-03-22T14:08:23;20.90;80.00
1626;DHT22;806;48.770;9.156;2024-03-22T14:10:50;20.90;79.70
1626;DHT22;806;48.770;9.156;2024-03-22T14:13:16;20.60;79.70
1626;DHT22;806;48.770;9.156;2024-03-22T14:15:44;20.60;80.00
1626;DHT22;806;48.770;9.156;2024-03-22T14:18:10;20.50;82.00
1626;DHT22;806;48.770;9.156;2024-03-22T14:20:37;20.40;81.40
1626;DHT22;806;48.770;9.156;2024-03-22T14:23:03;20.20;82.40
1626;DHT22;806;48.770;9.156;2024-03-22T14:25:34;20.20;82.50
1626;DHT22;806;48.770;9.156;2024-03-22T14:28:00;20.00;83.60
1626;DHT22;806;48.770;9.156;2024-03-22T14:30:28;19.90;85.60
1626;DHT22;806;48.770;9.156;2024-03-22T14:32:54;19.80;85.00
1626;DHT22;806;48.770;9.156;2024-03-22T14:35:22;19.50;84.80
1626;DHT22;806;48.770;9.156;2024-03-22T14:37:48;19.40;86.40
1626;DHT22;806;48.770;9.156;2024-03-22T14:40:16;19.40;83.10
1626;DHT22;806;48.770;9.156;2024-03-22T14:42:45;19.40;84.20
1626;DHT22;806;48.770;9.156;2024-03-22T14:45:12;19.50;81.60
1626;DHT22;806;48.770;9.156;2024-03-22T14:47:39;19.60;79.60
1626;DHT22;806;48.770;9.156;2024-03-22T14:50:06;19.60;77.60
1626;DHT22;806;48.770;9.156;2024-03-22T14:52:33;19.70;78.20
1626;DHT22;806;48.770;9.156;2024-03-22T14:54:59;19.70;76.50
1626;DHT22;806;48.770;9.156;2024-03-22T14:57:27;19.70;74.60
1626;DHT22;806;48.770;9.156;2024-03-22T14:59:54;19.80;73.90
1626;DHT22;806;48.770;9.156;2024-03-22T15:02:21;19.80;73.00
1626;DHT22;806;48.770;9.156;2024-03-22T15:04:47;19.70;75.80
1626;DHT22;806;48.770;9.156;2024-03-22T15:07:14;19.70;75.50
1626;DHT22;806;48.770;9.156;2024-03-22T15:09:41;19.60;73.10
1626;DHT22;806;48.770;9.156;2024-03-22T15:12:08;19.50;73.10
1626;DHT22;806;48.770;9.156;2024-03-22T15:14:35;19.40;72.80
1626;DHT22;806;48.770;9.156;2024-03-22T15:17:05;19.40;73.60
1626;DHT22;806;48.770;9.156;2024-03-22T15:19:31;19.30;74.10
1626;DHT22;806;48.770;9.156;2024-03-22T15:21:58;19.30;76.60
1626;DHT22;806;48.770;9.156;2024-03-22T15:24:24;19.30;72.50
1626;DHT22;806;48.770;9.156;2024-03-22T15:26:51;19.20;72.60
1626;DHT22;806;48.770;9.156;2024-03-22T15:29:17;19.10;74.50
1626;DHT22;806;48.770;9.156;2024-03-22T15:31:44;19.00;73.20
1626;DHT22;806;48.770;9.156;2024-03-22T15:34:12;18.80;74.00
1626;DHT22;806;48.770;9.156;2024-03-22T15:36:39;18.80;72.80
1626;DHT22;806;48.770;9.156;2024-03-22T15:39:05;18.70;73.60
1626;DHT22;806;48.770;9.156;2024-03-22T15:41:33;18.70;75.50
1626;DHT22;806;48.770;9.156;2024-03-22T15:43:59;18.80;74.80
1626;DHT22;806;48.770;9.156;2024-03-22T15:46:28;18.70;74.50
1626;DHT22;806;48.770;9.156;2024-03-22T15:48:55;18.80;74.60
1626;DHT22;806;48.770;9.156;2024-03-22T15:51:24;18.70;75.00
1626;DHT22;806;48.770;9.156;2024-03-22T15:53:50;18.60;76.20
1626;DHT22;806;48.770;9.156;2024-03-22T15:56:17;18.60;75.90
1626;DHT22;806;48.770;9.156;2024-03-22T15:58:44;18.40;78.20
1626;DHT22;806;48.770;9.156;2024-03-22T16:01:12;18.40;78.50
1626;DHT22;806;48.770;9.156;2024-03-22T16:03:39;18.40;79.20
1626;DHT22;806;48.770;9.156;2024-03-22T16:06:06;18.40;77.50
1626;DHT22;806;48.770;9.156;2024-03-22T16:08:34;18.30;78.10
1626;DHT22;806;48.770;9.156;2024-03-22T16:11:02;18.30;79.20
1626;DHT22;806;48.770;9.156;2024-03-22T16:13:28;18.30;79.30
1626;DHT22;806;48.770;9.156;2024-03-22T16:15:56;18.30;80.50
1626;DHT22;806;48.770;9.156;2024-03-22T16:18:22;18.30;81.00
1626;DHT22;806;48.770;9.156;2024-03-22T16:20:50;18.30;81.50
1626;DHT22;806;48.770;9.156;2024-03-22T16:23:16;18.30;79.60